Glasgow International Airport – EGPF

METAR:

EGPF 190350Z AUTO 07007KT 9999 FEW026 SCT035 10/08 Q1022


TAF:

TAF AMD EGPF 190221Z 1902/1924 07008KT 9999 SCT025 TEMPO 1902/1909 BKN008 BECMG 1909/1912 26010KT